createdAt,value
2022-11-01T00:01:01.732Z,13.87
2022-11-01T00:03:29.080Z,13.83
2022-11-01T00:05:56.460Z,13.85
2022-11-01T00:08:23.740Z,13.91
2022-11-01T00:10:50.905Z,13.87
2022-11-01T00:13:18.391Z,13.99
2022-11-01T00:15:45.586Z,13.95
2022-11-01T00:18:12.811Z,13.89
2022-11-01T00:20:39.996Z,13.86
2022-11-01T00:23:25.026Z,13.63
2022-11-01T00:25:52.286Z,13.67
2022-11-01T00:28:19.722Z,13.59
2022-11-01T00:30:47.023Z,13.66
2022-11-01T00:33:14.230Z,13.49
2022-11-01T00:35:41.425Z,13.42
2022-11-01T00:38:08.896Z,13.46
2022-11-01T00:40:36.199Z,13.53
2022-11-01T00:43:03.498Z,13.51
2022-11-01T00:45:30.730Z,13.35
2022-11-01T00:47:58.720Z,13.42
2022-11-01T00:50:26.713Z,13.34
2022-11-01T00:52:53.927Z,13.33
2022-11-01T00:55:21.226Z,13.33
2022-11-01T00:57:48.507Z,13.28
2022-11-01T01:00:15.905Z,13.17
2022-11-01T01:02:43.278Z,13.19
2022-11-01T01:05:10.695Z,13.11
2022-11-01T01:07:38.141Z,12.99
2022-11-01T01:10:06.618Z,13.04
2022-11-01T01:12:34.124Z,13.09
2022-11-01T01:15:01.822Z,13.07
2022-11-01T01:17:32.793Z,13.09
2022-11-01T01:20:01.162Z,13.14
2022-11-01T01:22:28.920Z,13.15
2022-11-01T01:24:56.408Z,13.23
2022-11-01T01:27:24.038Z,13.33
2022-11-01T01:29:52.229Z,13.23
2022-11-01T01:32:22.144Z,13.11
2022-11-01T01:34:50.194Z,13.12
2022-11-01T01:37:18.092Z,13.26
2022-11-01T01:39:45.288Z,13.38
2022-11-01T01:42:30.983Z,13.47
2022-11-01T01:45:01.446Z,13.61
2022-11-01T01:47:36.563Z,13.41
2022-11-01T01:50:18.229Z,13.38
2022-11-01T01:53:00.747Z,13.40
2022-11-01T01:55:35.004Z,13.46
2022-11-01T01:58:03.528Z,13.43
2022-11-01T02:00:30.931Z,13.44
2022-11-01T02:02:58.543Z,13.35
2022-11-01T02:05:37.837Z,13.31
2022-11-01T02:08:06.796Z,13.31
2022-11-01T02:10:38.402Z,13.29
2022-11-01T02:13:14.422Z,13.25
2022-11-01T02:15:58.886Z,13.36
2022-11-01T02:18:41.850Z,13.29
2022-11-01T02:21:39.621Z,13.26
2022-11-01T02:24:31.475Z,13.19
2022-11-01T02:27:11.537Z,13.22
2022-11-01T02:30:14.270Z,13.19
2022-11-01T02:32:47.772Z,13.24
2022-11-01T02:35:18.340Z,13.24
2022-11-01T02:38:09.149Z,13.18
2022-11-01T02:40:55.359Z,13.22
2022-11-01T02:43:29.780Z,13.32
2022-11-01T02:45:59.555Z,13.30
2022-11-01T02:48:26.792Z,13.29
2022-11-01T02:50:57.143Z,13.34
2022-11-01T02:53:24.835Z,13.31
2022-11-01T02:55:53.367Z,13.24
2022-11-01T02:58:24.488Z,13.21
2022-11-01T03:00:52.081Z,13.26
2022-11-01T03:03:23.918Z,13.36
2022-11-01T03:06:01.791Z,13.34
2022-11-01T03:08:44.777Z,13.18
2022-11-01T03:11:24.316Z,13.24
2022-11-01T03:14:39.035Z,13.19
2022-11-01T03:17:28.792Z,13.28
2022-11-01T03:20:09.338Z,13.17
2022-11-01T03:22:39.649Z,13.21
2022-11-01T03:25:34.459Z,13.10
2022-11-01T03:28:07.232Z,13.16
2022-11-01T03:30:40.033Z,13.16
2022-11-01T03:33:07.482Z,13.16
2022-11-01T03:35:38.548Z,12.99
2022-11-01T03:38:09.995Z,12.93
2022-11-01T03:40:39.762Z,13.04
2022-11-01T03:43:11.956Z,12.93
2022-11-01T03:45:40.784Z,13.03
2022-11-01T03:48:08.353Z,12.93
2022-11-01T03:50:36.021Z,12.98
2022-11-01T03:53:03.246Z,12.89
2022-11-01T03:55:30.645Z,12.89
2022-11-01T03:57:59.711Z,12.90
2022-11-01T04:00:33.607Z,12.97
2022-11-01T04:03:01.715Z,12.77
2022-11-01T04:05:31.472Z,12.85
2022-11-01T04:07:59.082Z,12.76
2022-11-01T04:10:29.817Z,12.73
2022-11-01T04:12:59.168Z,12.80
2022-11-01T04:15:27.757Z,12.77
2022-11-01T04:18:14.875Z,12.90
2022-11-01T04:20:42.113Z,12.84
2022-11-01T04:23:09.392Z,12.80
2022-11-01T04:25:36.691Z,12.65
2022-11-01T04:28:04.103Z,12.91
2022-11-01T04:30:31.318Z,12.77
2022-11-01T04:32:58.715Z,15.17
2022-11-01T04:35:26.063Z,15.70
2022-11-01T04:37:59.807Z,15.86
2022-11-01T04:40:27.353Z,15.85
2022-11-01T04:42:54.690Z,16.31
2022-11-01T04:45:21.999Z,16.22
2022-11-01T04:47:49.232Z,16.91
2022-11-01T04:50:17.327Z,16.51
2022-11-01T04:52:45.005Z,15.96
2022-11-01T04:55:12.762Z,15.97
2022-11-01T04:57:56.570Z,16.01
2022-11-01T05:00:24.454Z,15.55
2022-11-01T05:03:01.684Z,15.43
2022-11-01T05:05:35.928Z,15.91
2022-11-01T05:08:07.350Z,16.01
2022-11-01T05:10:37.797Z,15.51
2022-11-01T05:13:07.037Z,15.49
2022-11-01T05:15:53.591Z,14.62
2022-11-01T05:18:32.328Z,13.95
2022-11-01T05:21:00.150Z,13.50
2022-11-01T05:23:27.353Z,13.48
2022-11-01T05:25:54.589Z,13.37
2022-11-01T05:28:22.770Z,13.28
2022-11-01T05:30:55.456Z,13.33
2022-11-01T05:33:25.911Z,13.26
2022-11-01T05:35:53.555Z,13.27
2022-11-01T05:38:20.814Z,13.23
2022-11-01T05:40:48.046Z,13.42
2022-11-01T05:43:15.588Z,13.52
2022-11-01T05:45:43.141Z,13.47
2022-11-01T05:48:17.688Z,13.64
2022-11-01T05:50:51.342Z,13.70
2022-11-01T05:53:25.106Z,13.58
2022-11-01T05:55:57.879Z,13.82
2022-11-01T05:58:29.577Z,13.68
2022-11-01T06:01:05.895Z,13.76
2022-11-01T06:03:36.477Z,13.85
2022-11-01T06:06:04.999Z,13.76
2022-11-01T06:08:32.590Z,13.82
2022-11-01T06:11:05.287Z,13.79
2022-11-01T06:13:33.826Z,13.92
2022-11-01T06:16:05.287Z,14.89
2022-11-01T06:18:36.366Z,14.36
2022-11-01T06:21:09.575Z,14.51
2022-11-01T06:23:39.633Z,15.23
2022-11-01T06:26:09.781Z,14.63
2022-11-01T06:28:39.753Z,14.37
2022-11-01T06:31:10.071Z,14.59
2022-11-01T06:33:38.054Z,14.44
2022-11-01T06:36:06.282Z,14.47
2022-11-01T06:38:36.323Z,14.41
2022-11-01T06:41:06.029Z,14.53
2022-11-01T06:43:33.536Z,14.53
2022-11-01T06:46:01.274Z,14.47
2022-11-01T06:48:28.962Z,14.66
2022-11-01T06:50:56.527Z,14.68
2022-11-01T06:53:27.634Z,14.62
2022-11-01T06:55:58.519Z,14.60
2022-11-01T06:58:27.138Z,14.69
2022-11-01T07:00:54.473Z,14.70
2022-11-01T07:03:24.628Z,14.54
2022-11-01T07:05:59.249Z,14.55
2022-11-01T07:08:29.819Z,14.69
2022-11-01T07:11:00.662Z,14.62
2022-11-01T07:13:28.697Z,14.75
2022-11-01T07:15:59.590Z,14.84
2022-11-01T07:18:27.116Z,15.18
2022-11-01T07:20:57.405Z,15.56
2022-11-01T07:23:27.639Z,15.87
2022-11-01T07:25:57.791Z,16.40
2022-11-01T07:28:29.163Z,16.75
2022-11-01T07:30:57.161Z,16.94
2022-11-01T07:33:29.649Z,16.73
2022-11-01T07:35:57.189Z,17.12
2022-11-01T07:38:30.051Z,16.87
2022-11-01T07:40:57.296Z,16.93
2022-11-01T07:43:24.990Z,16.97
2022-11-01T07:45:58.990Z,17.01
2022-11-01T07:48:29.115Z,17.21
2022-11-01T07:51:02.808Z,17.27
2022-11-01T07:53:35.371Z,16.97
2022-11-01T07:56:07.192Z,17.05
2022-11-01T07:58:34.716Z,17.13
2022-11-01T08:01:08.103Z,17.44
2022-11-01T08:03:39.550Z,17.59
2022-11-01T08:06:08.163Z,17.64
2022-11-01T08:08:38.844Z,17.53
2022-11-01T08:11:08.627Z,17.41
2022-11-01T08:13:38.645Z,17.26
2022-11-01T08:16:09.655Z,17.49
2022-11-01T08:18:40.192Z,17.31
2022-11-01T08:21:10.782Z,17.03
2022-11-01T08:23:44.324Z,16.84
2022-11-01T08:26:15.318Z,16.83
2022-11-01T08:28:45.618Z,16.85
2022-11-01T08:31:19.025Z,16.72
2022-11-01T08:33:46.655Z,16.85
2022-11-01T08:36:16.423Z,16.87
2022-11-01T08:38:50.581Z,16.91
2022-11-01T08:41:17.862Z,17.13
2022-11-01T08:43:45.619Z,17.02
2022-11-01T08:46:13.341Z,17.23
2022-11-01T08:48:40.753Z,17.27
2022-11-01T08:51:13.883Z,17.36
2022-11-01T08:53:44.407Z,17.57
2022-11-01T08:56:12.079Z,17.64
2022-11-01T08:58:42.494Z,17.75
2022-11-01T09:01:17.661Z,17.76
2022-11-01T09:03:48.341Z,17.93
2022-11-01T09:06:15.741Z,17.81
2022-11-01T09:08:43.027Z,17.91
2022-11-01T09:11:18.235Z,17.94
2022-11-01T09:13:48.264Z,18.15
2022-11-01T09:16:19.508Z,18.18
2022-11-01T09:18:47.392Z,18.19
2022-11-01T09:21:31.855Z,18.33
2022-11-01T09:24:09.879Z,18.68
2022-11-01T09:26:43.603Z,19.01
2022-11-01T09:29:12.508Z,19.53
2022-11-01T09:31:42.761Z,19.82
2022-11-01T09:34:10.041Z,19.84
2022-11-01T09:36:44.066Z,19.42
2022-11-01T09:39:14.591Z,19.03
2022-11-01T09:41:56.955Z,19.06
2022-11-01T09:44:33.370Z,19.20
2022-11-01T09:47:13.022Z,19.28
2022-11-01T09:49:44.146Z,19.18
2022-11-01T09:52:26.535Z,19.23
2022-11-01T09:54:53.769Z,19.29
2022-11-01T09:57:43.880Z,19.30
2022-11-01T10:00:20.938Z,19.25
2022-11-01T10:03:12.885Z,19.30
2022-11-01T10:05:46.119Z,19.18
2022-11-01T10:08:31.442Z,19.19
2022-11-01T10:12:02.604Z,19.32
2022-11-01T10:14:41.919Z,19.23
2022-11-01T10:17:19.821Z,19.29
2022-11-01T10:19:50.897Z,19.42
2022-11-01T10:22:40.298Z,19.69
2022-11-01T10:25:19.664Z,19.72
2022-11-01T10:28:04.178Z,19.71
2022-11-01T10:30:43.079Z,19.89
2022-11-01T10:33:16.573Z,19.86
2022-11-01T10:35:49.457Z,19.95
2022-11-01T10:38:50.028Z,19.94
2022-11-01T10:41:49.396Z,20.06
2022-11-01T10:44:34.655Z,20.07
2022-11-01T10:47:10.886Z,20.02
2022-11-01T10:50:04.929Z,20.00
2022-11-01T10:52:58.588Z,20.06
2022-11-01T10:55:52.331Z,19.94
2022-11-01T10:58:30.820Z,19.99
2022-11-01T11:01:03.431Z,20.05
2022-11-01T11:03:31.529Z,20.13
2022-11-01T11:06:08.902Z,20.16
2022-11-01T11:08:40.709Z,20.33
2022-11-01T11:11:12.730Z,20.37
2022-11-01T11:13:54.943Z,20.30
2022-11-01T11:16:47.212Z,20.83
2022-11-01T11:19:22.629Z,21.04
2022-11-01T11:21:58.709Z,21.06
2022-11-01T11:24:32.389Z,20.73
2022-11-01T11:27:02.219Z,20.71
2022-11-01T11:29:50.037Z,20.75
2022-11-01T11:32:24.318Z,20.86
2022-11-01T11:34:55.184Z,21.18
2022-11-01T11:37:28.984Z,21.47
2022-11-01T11:40:24.031Z,21.40
2022-11-01T11:42:56.330Z,21.40
2022-11-01T11:45:31.158Z,21.61
2022-11-01T11:48:18.857Z,21.45
2022-11-01T11:50:46.340Z,21.25
2022-11-01T11:53:18.383Z,21.43
2022-11-01T11:55:54.112Z,21.47
2022-11-01T11:58:35.879Z,21.56
2022-11-01T12:01:11.382Z,21.23
2022-11-01T12:03:50.743Z,21.02
2022-11-01T12:06:30.163Z,20.83
2022-11-01T12:09:01.289Z,20.91
2022-11-01T12:11:46.599Z,21.17
2022-11-01T12:14:23.908Z,20.97
2022-11-01T12:16:52.136Z,21.04
2022-11-01T12:19:28.666Z,20.99
2022-11-01T12:22:03.481Z,21.12
2022-11-01T12:24:38.874Z,20.92
2022-11-01T12:27:14.340Z,20.90
2022-11-01T12:29:49.004Z,20.87
2022-11-01T12:32:36.900Z,20.96
2022-11-01T12:35:15.034Z,20.88
2022-11-01T12:38:04.604Z,20.99
2022-11-01T12:40:38.800Z,20.97
2022-11-01T12:43:21.281Z,20.73
2022-11-01T12:46:03.166Z,20.72
2022-11-01T12:48:36.403Z,21.01
2022-11-01T12:51:10.104Z,20.92
2022-11-01T12:53:48.802Z,21.05
2022-11-01T12:56:17.905Z,20.91
2022-11-01T12:58:45.430Z,20.91
2022-11-01T13:01:38.834Z,20.99
2022-11-01T13:04:16.509Z,20.81
2022-11-01T13:06:46.455Z,20.90
2022-11-01T13:09:58.226Z,20.78
2022-11-01T13:13:00.976Z,20.88
2022-11-01T13:15:39.577Z,20.93
2022-11-01T13:18:20.282Z,20.83
2022-11-01T13:20:50.842Z,20.82
2022-11-01T13:23:24.299Z,20.84
2022-11-01T13:26:14.613Z,20.87
2022-11-01T13:29:02.124Z,20.84
2022-11-01T13:31:59.590Z,20.80
2022-11-01T13:35:05.890Z,20.77
2022-11-01T13:37:39.087Z,20.71
2022-11-01T13:40:32.753Z,20.62
2022-11-01T13:43:34.059Z,20.64
2022-11-01T13:46:19.209Z,20.63
2022-11-01T13:48:59.607Z,20.48
2022-11-01T13:51:41.493Z,20.38
2022-11-01T13:54:36.333Z,20.34
2022-11-01T13:57:07.125Z,20.29
2022-11-01T13:59:37.109Z,20.26
2022-11-01T14:02:53.031Z,20.24
2022-11-01T14:05:38.620Z,20.20
2022-11-01T14:08:15.465Z,20.17
2022-11-01T14:10:50.622Z,20.16
2022-11-01T14:13:37.645Z,20.13
2022-11-01T14:16:25.520Z,20.09
2022-11-01T14:19:12.048Z,20.08
2022-11-01T14:21:45.844Z,19.95
2022-11-01T14:24:34.566Z,19.90
2022-11-01T14:27:06.032Z,19.85
2022-11-01T14:29:36.380Z,19.80
2022-11-01T14:32:04.269Z,19.75
2022-11-01T14:34:34.509Z,19.72
2022-11-01T14:37:15.224Z,19.61
2022-11-01T14:39:56.207Z,19.58
2022-11-01T14:42:32.915Z,20.07
2022-11-01T14:45:06.013Z,20.50
2022-11-01T14:47:41.241Z,20.51
2022-11-01T14:50:34.847Z,20.81
2022-11-01T14:53:32.338Z,20.84
2022-11-01T14:56:06.023Z,20.79
2022-11-01T14:58:34.142Z,20.79
2022-11-01T15:01:18.085Z,20.70
2022-11-01T15:03:57.163Z,20.87
2022-11-01T15:06:30.011Z,20.99
2022-11-01T15:08:59.557Z,20.91
2022-11-01T15:11:33.033Z,20.94
2022-11-01T15:14:04.428Z,21.00
2022-11-01T15:16:35.238Z,20.64
2022-11-01T15:19:13.885Z,20.59
2022-11-01T15:21:46.958Z,20.69
2022-11-01T15:24:20.418Z,20.65
2022-11-01T15:26:48.275Z,20.54
2022-11-01T15:29:21.778Z,20.60
2022-11-01T15:31:56.537Z,20.62
2022-11-01T15:34:31.336Z,20.68
2022-11-01T15:37:09.876Z,20.70
2022-11-01T15:39:40.067Z,20.51
2022-11-01T15:42:24.904Z,20.50
2022-11-01T15:44:55.536Z,20.47
2022-11-01T15:47:25.694Z,20.18
2022-11-01T15:50:00.599Z,19.22
2022-11-01T15:52:30.198Z,18.69
2022-11-01T15:55:15.585Z,18.31
2022-11-01T15:57:57.935Z,18.02
2022-11-01T16:00:32.275Z,17.75
2022-11-01T16:03:14.552Z,17.59
2022-11-01T16:05:47.696Z,17.43
2022-11-01T16:08:39.629Z,17.35
2022-11-01T16:11:08.310Z,17.24
2022-11-01T16:13:37.154Z,17.22
2022-11-01T16:16:06.600Z,17.12
2022-11-01T16:18:39.334Z,17.08
2022-11-01T16:21:27.905Z,16.98
2022-11-01T16:24:13.576Z,16.97
2022-11-01T16:27:02.623Z,17.00
2022-11-01T16:29:47.894Z,16.91
2022-11-01T16:32:33.361Z,16.94
2022-11-01T16:35:29.510Z,16.81
2022-11-01T16:38:00.657Z,16.66
2022-11-01T16:40:39.104Z,16.57
2022-11-01T16:43:11.733Z,16.50
2022-11-01T16:45:45.050Z,16.41
2022-11-01T16:48:50.321Z,16.37
2022-11-01T16:51:17.869Z,16.32
2022-11-01T16:53:48.322Z,16.25
2022-11-01T16:56:43.016Z,16.25
2022-11-01T16:59:33.866Z,16.20
2022-11-01T17:02:11.375Z,16.13
2022-11-01T17:04:42.969Z,16.18
2022-11-01T17:07:13.678Z,16.06
2022-11-01T17:09:43.850Z,16.02
2022-11-01T17:12:17.727Z,15.95
2022-11-01T17:14:44.966Z,16.00
2022-11-01T17:17:18.464Z,16.01
2022-11-01T17:19:52.347Z,15.96
2022-11-01T17:22:29.469Z,15.92
2022-11-01T17:24:57.011Z,15.91
2022-11-01T17:27:27.626Z,15.96
2022-11-01T17:29:54.902Z,15.89
2022-11-01T17:32:22.228Z,15.90
2022-11-01T17:34:49.896Z,15.89
2022-11-01T17:37:17.861Z,15.81
2022-11-01T17:39:47.232Z,15.76
2022-11-01T17:42:14.500Z,15.72
2022-11-01T17:44:41.697Z,15.71
2022-11-01T17:47:14.171Z,15.67
2022-11-01T17:49:41.806Z,15.71
2022-11-01T17:52:11.525Z,15.61
2022-11-01T17:54:41.531Z,15.61
2022-11-01T17:57:11.570Z,15.56
2022-11-01T17:59:38.799Z,15.47
2022-11-01T18:02:06.118Z,15.38
2022-11-01T18:04:35.688Z,15.25
2022-11-01T18:07:06.099Z,15.29
2022-11-01T18:09:34.133Z,15.27
2022-11-01T18:12:19.613Z,15.27
2022-11-01T18:15:08.134Z,15.27
2022-11-01T18:17:59.939Z,15.27
2022-11-01T18:20:48.517Z,15.21
2022-11-01T18:23:23.130Z,15.17
2022-11-01T18:25:51.146Z,15.10
2022-11-01T18:28:24.715Z,15.15
2022-11-01T18:30:58.332Z,15.15
2022-11-01T18:33:37.672Z,15.12
2022-11-01T18:36:14.001Z,15.11
2022-11-01T18:39:14.411Z,15.07
2022-11-01T18:41:47.594Z,15.02
2022-11-01T18:44:19.656Z,14.95
2022-11-01T18:47:14.724Z,14.87
2022-11-01T18:49:45.868Z,14.84
2022-11-01T18:52:18.610Z,14.72
2022-11-01T18:54:55.343Z,16.34
2022-11-01T18:57:23.858Z,15.46
2022-11-01T18:59:53.194Z,15.22
2022-11-01T19:02:21.987Z,15.03
2022-11-01T19:04:52.069Z,14.78
2022-11-01T19:07:23.365Z,14.61
2022-11-01T19:09:54.711Z,14.65
2022-11-01T19:12:28.286Z,14.62
2022-11-01T19:15:02.953Z,14.64
2022-11-01T19:17:37.439Z,14.54
2022-11-01T19:20:28.920Z,14.48
2022-11-01T19:23:01.195Z,14.41
2022-11-01T19:25:35.005Z,14.44
2022-11-01T19:28:12.571Z,14.49
2022-11-01T19:30:39.824Z,14.48
2022-11-01T19:33:22.049Z,14.56
2022-11-01T19:35:54.303Z,14.55
2022-11-01T19:38:24.817Z,14.43
2022-11-01T19:40:55.128Z,14.44
2022-11-01T19:43:28.363Z,14.44
2022-11-01T19:45:58.407Z,14.32
2022-11-01T19:48:30.733Z,14.33
2022-11-01T19:50:58.127Z,14.34
2022-11-01T19:53:33.943Z,14.33
2022-11-01T19:56:04.713Z,14.21
2022-11-01T19:58:41.980Z,14.31
2022-11-01T20:01:33.071Z,14.12
2022-11-01T20:04:00.419Z,14.09
2022-11-01T20:06:27.596Z,15.69
2022-11-01T20:09:06.098Z,14.76
2022-11-01T20:11:33.361Z,14.33
2022-11-01T20:14:01.173Z,14.17
2022-11-01T20:16:28.668Z,14.14
2022-11-01T20:18:55.943Z,14.21
2022-11-01T20:21:23.200Z,14.12
2022-11-01T20:23:50.403Z,13.97
2022-11-01T20:26:17.613Z,13.86
2022-11-01T20:28:45.064Z,13.91
2022-11-01T20:31:15.541Z,13.87
2022-11-01T20:33:42.818Z,13.74
2022-11-01T20:36:11.476Z,13.65
2022-11-01T20:38:39.528Z,13.69
2022-11-01T20:41:06.824Z,13.57
2022-11-01T20:43:34.741Z,13.53
2022-11-01T20:46:02.027Z,13.49
2022-11-01T20:48:32.750Z,13.48
2022-11-01T20:50:59.971Z,13.42
2022-11-01T20:53:29.832Z,13.27
2022-11-01T20:55:57.560Z,13.20
2022-11-01T20:58:24.842Z,13.28
2022-11-01T21:00:52.230Z,13.43
2022-11-01T21:03:21.365Z,13.38
2022-11-01T21:05:49.440Z,13.43
2022-11-01T21:08:24.433Z,13.35
2022-11-01T21:10:59.642Z,13.17
2022-11-01T21:13:35.481Z,13.04
2022-11-01T21:16:07.978Z,13.17
2022-11-01T21:18:38.870Z,13.32
2022-11-01T21:21:28.802Z,13.15
2022-11-01T21:23:56.223Z,13.03
2022-11-01T21:26:29.396Z,12.88
2022-11-01T21:29:19.369Z,12.85
2022-11-01T21:31:46.754Z,12.66
2022-11-01T21:34:13.992Z,12.77
2022-11-01T21:36:48.819Z,12.73
2022-11-01T21:39:20.759Z,12.66
2022-11-01T21:42:00.852Z,12.72
2022-11-01T21:44:35.607Z,12.48
2022-11-01T21:47:08.834Z,12.68
2022-11-01T21:49:36.446Z,12.43
2022-11-01T21:52:06.280Z,12.45
2022-11-01T21:54:35.639Z,12.50
2022-11-01T21:57:05.178Z,12.47
2022-11-01T21:59:33.052Z,12.42
2022-11-01T22:02:01.134Z,12.40
2022-11-01T22:04:30.258Z,12.53
2022-11-01T22:06:59.095Z,12.36
2022-11-01T22:09:27.131Z,12.23
2022-11-01T22:11:54.432Z,12.22
2022-11-01T22:14:22.759Z,12.24
2022-11-01T22:16:50.103Z,12.21
2022-11-01T22:19:24.535Z,12.14
2022-11-01T22:21:51.732Z,12.27
2022-11-01T22:24:19.169Z,12.23
2022-11-01T22:26:46.426Z,12.22
2022-11-01T22:29:13.595Z,12.23
2022-11-01T22:31:43.337Z,12.19
2022-11-01T22:34:10.538Z,12.28
2022-11-01T22:36:40.536Z,12.23
2022-11-01T22:39:19.070Z,12.17
2022-11-01T22:41:49.532Z,12.17
2022-11-01T22:44:18.982Z,12.15
2022-11-01T22:46:58.215Z,11.97
2022-11-01T22:49:27.161Z,11.97
2022-11-01T22:52:03.347Z,12.00
2022-11-01T22:54:33.583Z,11.98
2022-11-01T22:57:18.841Z,12.02
2022-11-01T22:59:56.104Z,12.08
2022-11-01T23:02:34.944Z,12.04
2022-11-01T23:05:08.440Z,12.04
2022-11-01T23:07:45.890Z,12.04
2022-11-01T23:10:26.658Z,11.84
2022-11-01T23:13:16.540Z,11.82
2022-11-01T23:15:44.691Z,11.81
2022-11-01T23:18:18.810Z,11.85
2022-11-01T23:20:54.152Z,11.78
2022-11-01T23:23:22.216Z,11.78
2022-11-01T23:25:50.455Z,11.77
2022-11-01T23:28:18.274Z,11.74
2022-11-01T23:30:57.413Z,11.65
2022-11-01T23:33:41.394Z,11.66
2022-11-01T23:36:26.050Z,11.67
2022-11-01T23:39:14.128Z,11.63
2022-11-01T23:41:47.473Z,11.56
2022-11-01T23:44:28.421Z,11.61
2022-11-01T23:47:20.811Z,11.55
2022-11-01T23:49:56.381Z,11.54
2022-11-01T23:52:35.462Z,11.45
2022-11-01T23:55:04.254Z,11.51
2022-11-01T23:57:31.482Z,11.41
2022-11-01T23:59:58.687Z,11.31
